sensor_id;sensor_type;location;lat;lon;timestamp;P1;durP1;ratioP1;P2;durP2;ratioP2
59302;SDS011;45074;52.764;6.896;2023-05-07T00:01:16;17.50;;;12.77;;
59302;SDS011;45074;52.764;6.896;2023-05-07T00:03:42;17.25;;;12.93;;
59302;SDS011;45074;52.764;6.896;2023-05-07T00:06:08;16.40;;;13.00;;
59302;SDS011;45074;52.764;6.896;2023-05-07T00:08:35;17.58;;;13.60;;
59302;SDS011;45074;52.764;6.896;2023-05-07T00:11:00;16.67;;;13.75;;
59302;SDS011;45074;52.764;6.896;2023-05-07T00:13:26;18.17;;;14.45;;
59302;SDS011;45074;52.764;6.896;2023-05-07T00:15:52;18.38;;;15.38;;
59302;SDS011;45074;52.764;6.896;2023-05-07T00:18:17;21.48;;;15.60;;
59302;SDS011;45074;52.764;6.896;2023-05-07T00:20:46;20.20;;;15.30;;
59302;SDS011;45074;52.764;6.896;2023-05-07T00:23:11;19.63;;;15.88;;
59302;SDS011;45074;52.764;6.896;2023-05-07T00:25:37;18.60;;;15.73;;
59302;SDS011;45074;52.764;6.896;2023-05-07T00:28:02;22.08;;;16.48;;
59302;SDS011;45074;52.764;6.896;2023-05-07T00:30:28;21.88;;;16.88;;
59302;SDS011;45074;52.764;6.896;2023-05-07T00:32:54;21.33;;;16.73;;
59302;SDS011;45074;52.764;6.896;2023-05-07T00:35:20;21.63;;;16.75;;
59302;SDS011;45074;52.764;6.896;2023-05-07T00:37:45;20.23;;;16.80;;
59302;SDS011;45074;52.764;6.896;2023-05-07T00:40:11;19.90;;;16.48;;
59302;SDS011;45074;52.764;6.896;2023-05-07T00:42:37;21.45;;;16.27;;
59302;SDS011;45074;52.764;6.896;2023-05-07T00:45:03;22.48;;;17.27;;
59302;SDS011;45074;52.764;6.896;2023-05-07T00:47:28;22.77;;;16.95;;
59302;SDS011;45074;52.764;6.896;2023-05-07T00:49:54;20.65;;;17.13;;
59302;SDS011;45074;52.764;6.896;2023-05-07T00:52:21;21.98;;;17.30;;
59302;SDS011;45074;52.764;6.896;2023-05-07T00:54:50;22.52;;;17.38;;
59302;SDS011;45074;52.764;6.896;2023-05-07T00:57:17;21.70;;;18.02;;
59302;SDS011;45074;52.764;6.896;2023-05-07T00:59:43;20.98;;;17.35;;
59302;SDS011;45074;52.764;6.896;2023-05-07T01:02:08;23.65;;;17.92;;
59302;SDS011;45074;52.764;6.896;2023-05-07T01:04:34;21.70;;;17.52;;
59302;SDS011;45074;52.764;6.896;2023-05-07T01:07:00;22.80;;;18.33;;
59302;SDS011;45074;52.764;6.896;2023-05-07T01:09:26;22.73;;;18.23;;
59302;SDS011;45074;52.764;6.896;2023-05-07T01:11:53;23.35;;;18.10;;
59302;SDS011;45074;52.764;6.896;2023-05-07T01:14:20;21.30;;;16.88;;
59302;SDS011;45074;52.764;6.896;2023-05-07T01:16:46;22.48;;;18.42;;
59302;SDS011;45074;52.764;6.896;2023-05-07T01:19:13;23.70;;;18.88;;
59302;SDS011;45074;52.764;6.896;2023-05-07T01:21:43;23.67;;;18.55;;
59302;SDS011;45074;52.764;6.896;2023-05-07T01:24:11;22.90;;;17.95;;
59302;SDS011;45074;52.764;6.896;2023-05-07T01:26:37;23.60;;;18.73;;
59302;SDS011;45074;52.764;6.896;2023-05-07T01:29:04;25.60;;;19.13;;
59302;SDS011;45074;52.764;6.896;2023-05-07T01:31:30;24.90;;;18.83;;
59302;SDS011;45074;52.764;6.896;2023-05-07T01:33:58;24.95;;;19.85;;
59302;SDS011;45074;52.764;6.896;2023-05-07T01:36:25;26.33;;;20.15;;
59302;SDS011;45074;52.764;6.896;2023-05-07T01:38:52;25.83;;;20.27;;
59302;SDS011;45074;52.764;6.896;2023-05-07T01:41:19;24.60;;;19.63;;
59302;SDS011;45074;52.764;6.896;2023-05-07T01:43:45;26.80;;;20.05;;
59302;SDS011;45074;52.764;6.896;2023-05-07T01:46:12;28.27;;;21.15;;
59302;SDS011;45074;52.764;6.896;2023-05-07T01:48:38;25.25;;;19.90;;
59302;SDS011;45074;52.764;6.896;2023-05-07T01:51:04;25.73;;;20.48;;
59302;SDS011;45074;52.764;6.896;2023-05-07T01:53:37;24.15;;;19.85;;
59302;SDS011;45074;52.764;6.896;2023-05-07T01:56:03;26.90;;;20.77;;
59302;SDS011;45074;52.764;6.896;2023-05-07T01:58:30;26.23;;;20.45;;
59302;SDS011;45074;52.764;6.896;2023-05-07T02:00:56;27.38;;;21.33;;
59302;SDS011;45074;52.764;6.896;2023-05-07T02:03:21;26.33;;;20.63;;
59302;SDS011;45074;52.764;6.896;2023-05-07T02:05:47;26.98;;;21.15;;
59302;SDS011;45074;52.764;6.896;2023-05-07T02:08:13;28.33;;;21.17;;
59302;SDS011;45074;52.764;6.896;2023-05-07T02:10:39;29.23;;;21.48;;
59302;SDS011;45074;52.764;6.896;2023-05-07T02:13:04;28.08;;;22.15;;
59302;SDS011;45074;52.764;6.896;2023-05-07T02:15:30;28.95;;;22.13;;
59302;SDS011;45074;52.764;6.896;2023-05-07T02:18:03;29.13;;;22.17;;
59302;SDS011;45074;52.764;6.896;2023-05-07T02:20:31;29.30;;;22.52;;
59302;SDS011;45074;52.764;6.896;2023-05-07T02:22:57;28.52;;;22.50;;
59302;SDS011;45074;52.764;6.896;2023-05-07T02:25:22;30.95;;;21.83;;
59302;SDS011;45074;52.764;6.896;2023-05-07T02:27:48;29.02;;;22.52;;
59302;SDS011;45074;52.764;6.896;2023-05-07T02:30:14;32.10;;;23.65;;
59302;SDS011;45074;52.764;6.896;2023-05-07T02:32:39;31.73;;;23.75;;
59302;SDS011;45074;52.764;6.896;2023-05-07T02:35:05;31.73;;;23.55;;
59302;SDS011;45074;52.764;6.896;2023-05-07T02:37:31;31.48;;;23.38;;
59302;SDS011;45074;52.764;6.896;2023-05-07T02:39:57;30.98;;;24.25;;
59302;SDS011;45074;52.764;6.896;2023-05-07T02:42:22;32.35;;;25.45;;
59302;SDS011;45074;52.764;6.896;2023-05-07T02:44:48;33.47;;;25.45;;
59302;SDS011;45074;52.764;6.896;2023-05-07T02:47:14;34.30;;;25.17;;
59302;SDS011;45074;52.764;6.896;2023-05-07T02:49:40;33.53;;;25.05;;
59302;SDS011;45074;52.764;6.896;2023-05-07T02:52:06;33.17;;;24.65;;
59302;SDS011;45074;52.764;6.896;2023-05-07T02:54:32;34.35;;;25.88;;
59302;SDS011;45074;52.764;6.896;2023-05-07T02:56:57;33.88;;;26.05;;
59302;SDS011;45074;52.764;6.896;2023-05-07T02:59:23;36.53;;;26.27;;
59302;SDS011;45074;52.764;6.896;2023-05-07T03:01:50;35.05;;;25.67;;
59302;SDS011;45074;52.764;6.896;2023-05-07T03:04:15;36.15;;;26.63;;
59302;SDS011;45074;52.764;6.896;2023-05-07T03:06:42;35.33;;;25.60;;
59302;SDS011;45074;52.764;6.896;2023-05-07T03:09:07;35.30;;;26.52;;
59302;SDS011;45074;52.764;6.896;2023-05-07T03:11:33;33.97;;;26.58;;
59302;SDS011;45074;52.764;6.896;2023-05-07T03:14:00;36.80;;;26.02;;
59302;SDS011;45074;52.764;6.896;2023-05-07T03:16:26;38.15;;;26.42;;
59302;SDS011;45074;52.764;6.896;2023-05-07T03:18:52;35.40;;;26.38;;
59302;SDS011;45074;52.764;6.896;2023-05-07T03:21:17;37.33;;;26.33;;
59302;SDS011;45074;52.764;6.896;2023-05-07T03:23:43;37.45;;;25.92;;
59302;SDS011;45074;52.764;6.896;2023-05-07T03:26:09;35.03;;;26.02;;
59302;SDS011;45074;52.764;6.896;2023-05-07T03:28:36;36.42;;;26.42;;
59302;SDS011;45074;52.764;6.896;2023-05-07T03:31:02;38.42;;;27.88;;
59302;SDS011;45074;52.764;6.896;2023-05-07T03:33:27;35.53;;;26.95;;
59302;SDS011;45074;52.764;6.896;2023-05-07T03:35:53;36.60;;;25.90;;
59302;SDS011;45074;52.764;6.896;2023-05-07T03:38:19;33.17;;;25.05;;
59302;SDS011;45074;52.764;6.896;2023-05-07T03:40:44;35.50;;;26.10;;
59302;SDS011;45074;52.764;6.896;2023-05-07T03:43:10;34.55;;;25.25;;
59302;SDS011;45074;52.764;6.896;2023-05-07T03:45:36;34.72;;;25.23;;
59302;SDS011;45074;52.764;6.896;2023-05-07T03:48:01;32.78;;;24.85;;
59302;SDS011;45074;52.764;6.896;2023-05-07T03:50:27;32.85;;;25.33;;
59302;SDS011;45074;52.764;6.896;2023-05-07T03:52:52;34.95;;;25.58;;
59302;SDS011;45074;52.764;6.896;2023-05-07T03:55:18;35.55;;;25.63;;
59302;SDS011;45074;52.764;6.896;2023-05-07T03:57:44;34.97;;;25.50;;
59302;SDS011;45074;52.764;6.896;2023-05-07T04:00:10;35.55;;;25.40;;
59302;SDS011;45074;52.764;6.896;2023-05-07T04:02:36;36.72;;;26.35;;
59302;SDS011;45074;52.764;6.896;2023-05-07T04:05:02;31.23;;;24.73;;
59302;SDS011;45074;52.764;6.896;2023-05-07T04:07:28;33.55;;;25.85;;
59302;SDS011;45074;52.764;6.896;2023-05-07T04:09:53;34.03;;;25.45;;
59302;SDS011;45074;52.764;6.896;2023-05-07T04:12:19;33.33;;;26.00;;
59302;SDS011;45074;52.764;6.896;2023-05-07T04:14:44;34.67;;;25.17;;
59302;SDS011;45074;52.764;6.896;2023-05-07T04:17:10;31.85;;;25.02;;
59302;SDS011;45074;52.764;6.896;2023-05-07T04:19:36;33.80;;;24.63;;
59302;SDS011;45074;52.764;6.896;2023-05-07T04:22:01;30.83;;;23.48;;
59302;SDS011;45074;52.764;6.896;2023-05-07T04:24:27;32.25;;;24.23;;
59302;SDS011;45074;52.764;6.896;2023-05-07T04:26:55;32.08;;;23.67;;
59302;SDS011;45074;52.764;6.896;2023-05-07T04:29:21;31.45;;;23.60;;
59302;SDS011;45074;52.764;6.896;2023-05-07T04:31:47;33.30;;;24.23;;
59302;SDS011;45074;52.764;6.896;2023-05-07T04:34:12;31.15;;;23.63;;
59302;SDS011;45074;52.764;6.896;2023-05-07T04:36:39;30.17;;;23.17;;
59302;SDS011;45074;52.764;6.896;2023-05-07T04:39:05;30.33;;;22.63;;
59302;SDS011;45074;52.764;6.896;2023-05-07T04:41:31;30.52;;;22.70;;
59302;SDS011;45074;52.764;6.896;2023-05-07T04:43:57;29.98;;;23.17;;
59302;SDS011;45074;52.764;6.896;2023-05-07T04:46:23;29.23;;;23.17;;
59302;SDS011;45074;52.764;6.896;2023-05-07T04:48:49;28.50;;;22.23;;
59302;SDS011;45074;52.764;6.896;2023-05-07T04:51:15;26.45;;;21.73;;
59302;SDS011;45074;52.764;6.896;2023-05-07T04:53:41;29.23;;;22.15;;
59302;SDS011;45074;52.764;6.896;2023-05-07T04:56:08;31.58;;;23.20;;
59302;SDS011;45074;52.764;6.896;2023-05-07T04:58:33;29.77;;;22.65;;
59302;SDS011;45074;52.764;6.896;2023-05-07T05:00:59;28.88;;;22.20;;
59302;SDS011;45074;52.764;6.896;2023-05-07T05:03:25;29.25;;;22.23;;
59302;SDS011;45074;52.764;6.896;2023-05-07T05:05:51;28.15;;;22.17;;
59302;SDS011;45074;52.764;6.896;2023-05-07T05:08:17;30.70;;;23.42;;
59302;SDS011;45074;52.764;6.896;2023-05-07T05:10:43;28.38;;;22.15;;
59302;SDS011;45074;52.764;6.896;2023-05-07T05:13:09;28.08;;;21.00;;
59302;SDS011;45074;52.764;6.896;2023-05-07T05:15:37;27.48;;;21.65;;
59302;SDS011;45074;52.764;6.896;2023-05-07T05:18:03;27.35;;;21.80;;
59302;SDS011;45074;52.764;6.896;2023-05-07T05:20:30;29.90;;;23.27;;
59302;SDS011;45074;52.764;6.896;2023-05-07T05:22:55;28.98;;;22.25;;
59302;SDS011;45074;52.764;6.896;2023-05-07T05:25:21;27.95;;;22.50;;
59302;SDS011;45074;52.764;6.896;2023-05-07T05:27:47;30.90;;;22.42;;
59302;SDS011;45074;52.764;6.896;2023-05-07T05:30:13;29.67;;;22.58;;
59302;SDS011;45074;52.764;6.896;2023-05-07T05:32:39;28.70;;;22.35;;
59302;SDS011;45074;52.764;6.896;2023-05-07T05:35:05;28.55;;;21.98;;
59302;SDS011;45074;52.764;6.896;2023-05-07T05:37:31;32.47;;;22.92;;
59302;SDS011;45074;52.764;6.896;2023-05-07T05:39:57;30.30;;;22.33;;
59302;SDS011;45074;52.764;6.896;2023-05-07T05:42:23;29.83;;;21.77;;
59302;SDS011;45074;52.764;6.896;2023-05-07T05:44:49;30.08;;;23.00;;
59302;SDS011;45074;52.764;6.896;2023-05-07T05:47:15;31.08;;;24.00;;
59302;SDS011;45074;52.764;6.896;2023-05-07T05:49:41;30.40;;;24.30;;
59302;SDS011;45074;52.764;6.896;2023-05-07T05:52:08;30.90;;;23.92;;
59302;SDS011;45074;52.764;6.896;2023-05-07T05:54:34;32.40;;;24.40;;
59302;SDS011;45074;52.764;6.896;2023-05-07T05:57:00;31.80;;;24.70;;
59302;SDS011;45074;52.764;6.896;2023-05-07T05:59:29;30.63;;;23.70;;
59302;SDS011;45074;52.764;6.896;2023-05-07T06:01:55;29.45;;;23.15;;
59302;SDS011;45074;52.764;6.896;2023-05-07T06:04:21;33.53;;;24.55;;
59302;SDS011;45074;52.764;6.896;2023-05-07T06:06:47;30.80;;;24.60;;
59302;SDS011;45074;52.764;6.896;2023-05-07T06:09:13;32.60;;;23.98;;
59302;SDS011;45074;52.764;6.896;2023-05-07T06:11:39;30.30;;;24.33;;
59302;SDS011;45074;52.764;6.896;2023-05-07T06:14:06;33.63;;;24.00;;
59302;SDS011;45074;52.764;6.896;2023-05-07T06:16:32;31.35;;;23.30;;
59302;SDS011;45074;52.764;6.896;2023-05-07T06:18:58;33.13;;;24.50;;
59302;SDS011;45074;52.764;6.896;2023-05-07T06:21:24;34.50;;;24.92;;
59302;SDS011;45074;52.764;6.896;2023-05-07T06:23:50;31.65;;;25.05;;
59302;SDS011;45074;52.764;6.896;2023-05-07T06:26:17;33.33;;;24.50;;
59302;SDS011;45074;52.764;6.896;2023-05-07T06:28:43;32.03;;;24.58;;
59302;SDS011;45074;52.764;6.896;2023-05-07T06:31:13;32.03;;;23.65;;
59302;SDS011;45074;52.764;6.896;2023-05-07T06:33:39;33.15;;;24.55;;
59302;SDS011;45074;52.764;6.896;2023-05-07T06:36:05;33.20;;;24.98;;
59302;SDS011;45074;52.764;6.896;2023-05-07T06:38:32;32.33;;;24.10;;
59302;SDS011;45074;52.764;6.896;2023-05-07T06:40:58;33.42;;;25.00;;
59302;SDS011;45074;52.764;6.896;2023-05-07T06:43:24;31.77;;;24.90;;
59302;SDS011;45074;52.764;6.896;2023-05-07T06:45:50;33.05;;;25.10;;
59302;SDS011;45074;52.764;6.896;2023-05-07T06:48:15;32.50;;;25.40;;
59302;SDS011;45074;52.764;6.896;2023-05-07T06:50:41;33.28;;;25.20;;
59302;SDS011;45074;52.764;6.896;2023-05-07T06:53:08;32.45;;;24.30;;
59302;SDS011;45074;52.764;6.896;2023-05-07T06:55:34;34.40;;;25.20;;
59302;SDS011;45074;52.764;6.896;2023-05-07T06:58:00;34.95;;;25.25;;
59302;SDS011;45074;52.764;6.896;2023-05-07T07:00:26;33.47;;;25.55;;
59302;SDS011;45074;52.764;6.896;2023-05-07T07:02:53;32.53;;;24.15;;
59302;SDS011;45074;52.764;6.896;2023-05-07T07:05:19;33.25;;;25.25;;
59302;SDS011;45074;52.764;6.896;2023-05-07T07:07:45;32.63;;;24.08;;
59302;SDS011;45074;52.764;6.896;2023-05-07T07:10:18;32.45;;;25.08;;
59302;SDS011;45074;52.764;6.896;2023-05-07T07:12:44;33.00;;;25.70;;
59302;SDS011;45074;52.764;6.896;2023-05-07T07:15:10;33.38;;;25.27;;
59302;SDS011;45074;52.764;6.896;2023-05-07T07:17:36;33.70;;;25.45;;
59302;SDS011;45074;52.764;6.896;2023-05-07T07:20:02;33.67;;;25.23;;
59302;SDS011;45074;52.764;6.896;2023-05-07T07:22:28;33.15;;;24.80;;
59302;SDS011;45074;52.764;6.896;2023-05-07T07:24:54;34.67;;;25.92;;
59302;SDS011;45074;52.764;6.896;2023-05-07T07:27:20;36.10;;;25.73;;
59302;SDS011;45074;52.764;6.896;2023-05-07T07:29:46;32.72;;;25.45;;
59302;SDS011;45074;52.764;6.896;2023-05-07T07:32:12;34.67;;;25.75;;
59302;SDS011;45074;52.764;6.896;2023-05-07T07:34:38;33.40;;;24.75;;
59302;SDS011;45074;52.764;6.896;2023-05-07T07:37:04;33.80;;;25.52;;
59302;SDS011;45074;52.764;6.896;2023-05-07T07:39:31;32.22;;;24.30;;
59302;SDS011;45074;52.764;6.896;2023-05-07T07:41:57;33.67;;;23.75;;
59302;SDS011;45074;52.764;6.896;2023-05-07T07:44:24;32.78;;;24.17;;
59302;SDS011;45074;52.764;6.896;2023-05-07T07:46:50;32.13;;;23.92;;
59302;SDS011;45074;52.764;6.896;2023-05-07T07:49:16;33.20;;;24.88;;
59302;SDS011;45074;52.764;6.896;2023-05-07T07:51:42;30.75;;;23.45;;
59302;SDS011;45074;52.764;6.896;2023-05-07T07:54:08;30.67;;;24.17;;
59302;SDS011;45074;52.764;6.896;2023-05-07T07:56:34;31.15;;;23.60;;
59302;SDS011;45074;52.764;6.896;2023-05-07T07:59:00;30.83;;;24.10;;
59302;SDS011;45074;52.764;6.896;2023-05-07T08:01:27;30.25;;;24.13;;
59302;SDS011;45074;52.764;6.896;2023-05-07T08:03:53;29.20;;;23.92;;
59302;SDS011;45074;52.764;6.896;2023-05-07T08:06:19;33.35;;;25.70;;
59302;SDS011;45074;52.764;6.896;2023-05-07T08:08:45;31.20;;;24.20;;
59302;SDS011;45074;52.764;6.896;2023-05-07T08:11:11;29.42;;;23.05;;
59302;SDS011;45074;52.764;6.896;2023-05-07T08:13:37;30.40;;;23.77;;
59302;SDS011;45074;52.764;6.896;2023-05-07T08:16:03;28.90;;;22.83;;
59302;SDS011;45074;52.764;6.896;2023-05-07T08:18:29;27.98;;;23.10;;
59302;SDS011;45074;52.764;6.896;2023-05-07T08:20:55;28.92;;;23.15;;
59302;SDS011;45074;52.764;6.896;2023-05-07T08:23:22;29.02;;;23.83;;
59302;SDS011;45074;52.764;6.896;2023-05-07T08:25:48;29.45;;;23.08;;
59302;SDS011;45074;52.764;6.896;2023-05-07T08:28:14;29.17;;;23.85;;
59302;SDS011;45074;52.764;6.896;2023-05-07T08:30:40;28.30;;;22.85;;
59302;SDS011;45074;52.764;6.896;2023-05-07T08:33:08;31.13;;;23.88;;
59302;SDS011;45074;52.764;6.896;2023-05-07T08:35:34;28.63;;;22.42;;
59302;SDS011;45074;52.764;6.896;2023-05-07T08:38:00;27.92;;;22.50;;
59302;SDS011;45074;52.764;6.896;2023-05-07T08:40:26;27.42;;;22.42;;
59302;SDS011;45074;52.764;6.896;2023-05-07T08:42:53;27.38;;;22.13;;
59302;SDS011;45074;52.764;6.896;2023-05-07T08:45:19;30.20;;;22.23;;
59302;SDS011;45074;52.764;6.896;2023-05-07T08:47:53;26.77;;;21.45;;
59302;SDS011;45074;52.764;6.896;2023-05-07T08:50:23;26.58;;;21.73;;
59302;SDS011;45074;52.764;6.896;2023-05-07T08:52:49;26.10;;;21.17;;
59302;SDS011;45074;52.764;6.896;2023-05-07T08:55:15;26.85;;;20.80;;
59302;SDS011;45074;52.764;6.896;2023-05-07T08:57:42;26.98;;;21.83;;
59302;SDS011;45074;52.764;6.896;2023-05-07T09:00:08;24.65;;;20.50;;
59302;SDS011;45074;52.764;6.896;2023-05-07T09:02:35;25.27;;;20.58;;
59302;SDS011;45074;52.764;6.896;2023-05-07T09:05:01;24.98;;;20.75;;
59302;SDS011;45074;52.764;6.896;2023-05-07T09:07:27;26.58;;;21.15;;
59302;SDS011;45074;52.764;6.896;2023-05-07T09:09:53;26.38;;;21.10;;
59302;SDS011;45074;52.764;6.896;2023-05-07T09:12:20;24.50;;;20.00;;
59302;SDS011;45074;52.764;6.896;2023-05-07T09:14:46;25.20;;;20.27;;
59302;SDS011;45074;52.764;6.896;2023-05-07T09:17:13;23.63;;;20.25;;
59302;SDS011;45074;52.764;6.896;2023-05-07T09:19:39;24.73;;;20.65;;
59302;SDS011;45074;52.764;6.896;2023-05-07T09:22:05;23.45;;;20.02;;
59302;SDS011;45074;52.764;6.896;2023-05-07T09:24:34;24.95;;;20.67;;
59302;SDS011;45074;52.764;6.896;2023-05-07T09:27:02;22.05;;;18.73;;
59302;SDS011;45074;52.764;6.896;2023-05-07T09:29:29;22.38;;;19.63;;
59302;SDS011;45074;52.764;6.896;2023-05-07T09:34:30;22.45;;;18.45;;
59302;SDS011;45074;52.764;6.896;2023-05-07T09:36:56;22.63;;;19.25;;
59302;SDS011;45074;52.764;6.896;2023-05-07T09:39:24;23.35;;;19.60;;
59302;SDS011;45074;52.764;6.896;2023-05-07T09:41:50;21.27;;;17.92;;
59302;SDS011;45074;52.764;6.896;2023-05-07T09:44:19;20.08;;;17.70;;
59302;SDS011;45074;52.764;6.896;2023-05-07T09:46:45;23.70;;;18.55;;
59302;SDS011;45074;52.764;6.896;2023-05-07T09:49:22;22.60;;;17.92;;
59302;SDS011;45074;52.764;6.896;2023-05-07T09:51:49;21.33;;;17.55;;
59302;SDS011;45074;52.764;6.896;2023-05-07T09:54:16;21.15;;;17.30;;
59302;SDS011;45074;52.764;6.896;2023-05-07T09:56:43;19.75;;;16.80;;
59302;SDS011;45074;52.764;6.896;2023-05-07T09:59:10;19.77;;;16.70;;
59302;SDS011;45074;52.764;6.896;2023-05-07T10:01:38;20.42;;;16.80;;
59302;SDS011;45074;52.764;6.896;2023-05-07T10:04:07;22.05;;;16.98;;
59302;SDS011;45074;52.764;6.896;2023-05-07T10:06:34;19.73;;;17.55;;
59302;SDS011;45074;52.764;6.896;2023-05-07T10:09:04;20.05;;;17.20;;
59302;SDS011;45074;52.764;6.896;2023-05-07T10:11:34;19.05;;;16.95;;
59302;SDS011;45074;52.764;6.896;2023-05-07T10:14:03;19.73;;;17.20;;
59302;SDS011;45074;52.764;6.896;2023-05-07T10:16:34;19.55;;;16.92;;
59302;SDS011;45074;52.764;6.896;2023-05-07T10:19:04;18.75;;;15.63;;
59302;SDS011;45074;52.764;6.896;2023-05-07T10:21:31;18.63;;;15.98;;
59302;SDS011;45074;52.764;6.896;2023-05-07T10:24:32;17.52;;;14.82;;
59302;SDS011;45074;52.764;6.896;2023-05-07T10:26:52;21.08;;;16.90;;
59302;SDS011;45074;52.764;6.896;2023-05-07T10:29:20;19.27;;;16.80;;
59302;SDS011;45074;52.764;6.896;2023-05-07T10:31:57;18.15;;;16.25;;
59302;SDS011;45074;52.764;6.896;2023-05-07T10:34:43;20.08;;;17.17;;
59302;SDS011;45074;52.764;6.896;2023-05-07T10:37:12;20.85;;;16.98;;
59302;SDS011;45074;52.764;6.896;2023-05-07T10:39:38;18.73;;;16.25;;
59302;SDS011;45074;52.764;6.896;2023-05-07T10:42:08;19.10;;;16.60;;
59302;SDS011;45074;52.764;6.896;2023-05-07T10:44:38;17.23;;;15.43;;
59302;SDS011;45074;52.764;6.896;2023-05-07T10:47:05;18.60;;;15.85;;
59302;SDS011;45074;52.764;6.896;2023-05-07T10:49:51;19.03;;;16.83;;
59302;SDS011;45074;52.764;6.896;2023-05-07T10:52:21;18.55;;;16.13;;
59302;SDS011;45074;52.764;6.896;2023-05-07T10:55:18;17.55;;;15.48;;
59302;SDS011;45074;52.764;6.896;2023-05-07T10:57:42;19.40;;;15.95;;
59302;SDS011;45074;52.764;6.896;2023-05-07T11:05:29;19.00;;;16.85;;
59302;SDS011;45074;52.764;6.896;2023-05-07T11:07:56;18.15;;;16.20;;
59302;SDS011;45074;52.764;6.896;2023-05-07T11:10:23;18.48;;;16.45;;
59302;SDS011;45074;52.764;6.896;2023-05-07T11:13:15;17.05;;;14.77;;
59302;SDS011;45074;52.764;6.896;2023-05-07T11:15:44;18.02;;;15.70;;
59302;SDS011;45074;52.764;6.896;2023-05-07T11:18:12;18.90;;;16.75;;
59302;SDS011;45074;52.764;6.896;2023-05-07T11:20:55;20.80;;;16.90;;
59302;SDS011;45074;52.764;6.896;2023-05-07T11:26:00;17.48;;;15.63;;
59302;SDS011;45074;52.764;6.896;2023-05-07T11:28:36;18.30;;;16.25;;
59302;SDS011;45074;52.764;6.896;2023-05-07T11:31:03;17.05;;;15.35;;
59302;SDS011;45074;52.764;6.896;2023-05-07T11:33:29;17.58;;;15.48;;
59302;SDS011;45074;52.764;6.896;2023-05-07T11:35:56;16.80;;;15.00;;
59302;SDS011;45074;52.764;6.896;2023-05-07T11:38:22;18.50;;;16.60;;
59302;SDS011;45074;52.764;6.896;2023-05-07T11:40:52;16.65;;;14.80;;
59302;SDS011;45074;52.764;6.896;2023-05-07T11:43:20;17.50;;;15.57;;
59302;SDS011;45074;52.764;6.896;2023-05-07T11:45:47;17.08;;;15.27;;
59302;SDS011;45074;52.764;6.896;2023-05-07T11:48:13;17.17;;;14.82;;
59302;SDS011;45074;52.764;6.896;2023-05-07T11:50:53;17.40;;;15.50;;
59302;SDS011;45074;52.764;6.896;2023-05-07T11:53:20;16.60;;;14.90;;
59302;SDS011;45074;52.764;6.896;2023-05-07T11:55:46;16.55;;;14.75;;
59302;SDS011;45074;52.764;6.896;2023-05-07T11:58:12;16.55;;;14.63;;
59302;SDS011;45074;52.764;6.896;2023-05-07T12:00:49;16.05;;;14.35;;
59302;SDS011;45074;52.764;6.896;2023-05-07T12:03:15;15.77;;;14.18;;
59302;SDS011;45074;52.764;6.896;2023-05-07T12:05:43;15.82;;;14.15;;
59302;SDS011;45074;52.764;6.896;2023-05-07T12:08:12;16.85;;;15.02;;
59302;SDS011;45074;52.764;6.896;2023-05-07T12:10:42;17.52;;;15.73;;
59302;SDS011;45074;52.764;6.896;2023-05-07T12:13:18;17.48;;;15.57;;
59302;SDS011;45074;52.764;6.896;2023-05-07T12:15:45;18.40;;;16.50;;
59302;SDS011;45074;52.764;6.896;2023-05-07T12:18:11;16.98;;;15.27;;
59302;SDS011;45074;52.764;6.896;2023-05-07T12:20:37;17.52;;;15.73;;
59302;SDS011;45074;52.764;6.896;2023-05-07T12:23:04;16.17;;;14.48;;
59302;SDS011;45074;52.764;6.896;2023-05-07T12:25:37;16.30;;;14.52;;
59302;SDS011;45074;52.764;6.896;2023-05-07T12:28:03;17.30;;;15.50;;
59302;SDS011;45074;52.764;6.896;2023-05-07T12:30:30;17.17;;;15.48;;
59302;SDS011;45074;52.764;6.896;2023-05-07T12:32:57;18.15;;;16.30;;
59302;SDS011;45074;52.764;6.896;2023-05-07T12:35:29;16.65;;;15.05;;
59302;SDS011;45074;52.764;6.896;2023-05-07T12:37:59;15.68;;;14.02;;
59302;SDS011;45074;52.764;6.896;2023-05-07T12:40:38;14.85;;;13.35;;
59302;SDS011;45074;52.764;6.896;2023-05-07T12:43:04;15.00;;;13.40;;
59302;SDS011;45074;52.764;6.896;2023-05-07T12:45:30;15.10;;;13.48;;
59302;SDS011;45074;52.764;6.896;2023-05-07T12:48:00;14.52;;;12.95;;
59302;SDS011;45074;52.764;6.896;2023-05-07T12:50:30;16.90;;;15.15;;
59302;SDS011;45074;52.764;6.896;2023-05-07T12:52:57;15.10;;;13.60;;
59302;SDS011;45074;52.764;6.896;2023-05-07T12:55:23;15.35;;;13.85;;
59302;SDS011;45074;52.764;6.896;2023-05-07T12:57:49;14.98;;;13.55;;
59302;SDS011;45074;52.764;6.896;2023-05-07T13:00:16;15.10;;;13.60;;
59302;SDS011;45074;52.764;6.896;2023-05-07T13:02:43;15.23;;;13.57;;
59302;SDS011;45074;52.764;6.896;2023-05-07T13:05:09;15.38;;;13.88;;
59302;SDS011;45074;52.764;6.896;2023-05-07T13:07:36;14.30;;;12.88;;
59302;SDS011;45074;52.764;6.896;2023-05-07T13:10:02;15.02;;;13.57;;
59302;SDS011;45074;52.764;6.896;2023-05-07T13:12:28;14.38;;;12.98;;
59302;SDS011;45074;52.764;6.896;2023-05-07T13:14:55;14.98;;;13.48;;
59302;SDS011;45074;52.764;6.896;2023-05-07T13:17:21;14.85;;;13.35;;
59302;SDS011;45074;52.764;6.896;2023-05-07T13:19:47;14.20;;;12.80;;
59302;SDS011;45074;52.764;6.896;2023-05-07T13:22:13;15.05;;;13.55;;
59302;SDS011;45074;52.764;6.896;2023-05-07T13:24:39;14.70;;;13.10;;
59302;SDS011;45074;52.764;6.896;2023-05-07T13:27:06;14.00;;;12.60;;
59302;SDS011;45074;52.764;6.896;2023-05-07T13:29:32;13.70;;;12.32;;
59302;SDS011;45074;52.764;6.896;2023-05-07T13:31:58;13.60;;;12.20;;
59302;SDS011;45074;52.764;6.896;2023-05-07T13:34:25;13.77;;;12.38;;
59302;SDS011;45074;52.764;6.896;2023-05-07T13:36:51;12.85;;;11.55;;
59302;SDS011;45074;52.764;6.896;2023-05-07T13:39:17;14.88;;;13.27;;
59302;SDS011;45074;52.764;6.896;2023-05-07T13:41:43;14.65;;;13.20;;
59302;SDS011;45074;52.764;6.896;2023-05-07T13:44:09;15.20;;;13.80;;
59302;SDS011;45074;52.764;6.896;2023-05-07T13:46:35;14.30;;;12.82;;
59302;SDS011;45074;52.764;6.896;2023-05-07T13:49:01;14.40;;;13.00;;
59302;SDS011;45074;52.764;6.896;2023-05-07T13:51:27;15.45;;;13.95;;
59302;SDS011;45074;52.764;6.896;2023-05-07T13:53:53;15.00;;;13.45;;
59302;SDS011;45074;52.764;6.896;2023-05-07T13:56:19;14.15;;;12.70;;
59302;SDS011;45074;52.764;6.896;2023-05-07T13:58:46;13.68;;;12.30;;
59302;SDS011;45074;52.764;6.896;2023-05-07T14:01:12;13.00;;;11.75;;
59302;SDS011;45074;52.764;6.896;2023-05-07T14:03:38;13.10;;;11.90;;
59302;SDS011;45074;52.764;6.896;2023-05-07T14:06:05;14.00;;;12.70;;
59302;SDS011;45074;52.764;6.896;2023-05-07T14:08:31;13.98;;;12.57;;
59302;SDS011;45074;52.764;6.896;2023-05-07T14:10:57;14.35;;;12.93;;
59302;SDS011;45074;52.764;6.896;2023-05-07T14:13:23;13.50;;;12.10;;
59302;SDS011;45074;52.764;6.896;2023-05-07T14:15:50;13.93;;;12.52;;
59302;SDS011;45074;52.764;6.896;2023-05-07T14:18:16;14.52;;;13.13;;
59302;SDS011;45074;52.764;6.896;2023-05-07T14:20:42;13.18;;;11.88;;
59302;SDS011;45074;52.764;6.896;2023-05-07T14:23:10;12.50;;;11.20;;
59302;SDS011;45074;52.764;6.896;2023-05-07T14:25:36;12.15;;;10.95;;
59302;SDS011;45074;52.764;6.896;2023-05-07T14:28:02;11.93;;;10.73;;
59302;SDS011;45074;52.764;6.896;2023-05-07T14:30:28;12.10;;;10.90;;